createdAt,value
2023-05-05T00:00:23.940Z,450.00
2023-05-05T00:01:23.956Z,449.00
2023-05-05T00:02:24.038Z,450.00
2023-05-05T00:03:24.102Z,452.00
2023-05-05T00:04:24.098Z,452.00
2023-05-05T00:05:24.105Z,451.00
2023-05-05T00:06:24.104Z,452.00
2023-05-05T00:07:24.138Z,451.00
2023-05-05T00:08:24.184Z,452.00
2023-05-05T00:09:24.205Z,452.00
2023-05-05T00:10:24.201Z,453.00
2023-05-05T00:11:24.202Z,451.00
2023-05-05T00:12:24.201Z,451.00
2023-05-05T00:13:24.194Z,450.00
2023-05-05T00:14:24.189Z,450.00
2023-05-05T00:15:24.195Z,449.00
2023-05-05T00:16:24.230Z,448.00
2023-05-05T00:17:24.232Z,447.00
2023-05-05T00:18:24.186Z,447.00
2023-05-05T00:19:24.183Z,448.00
2023-05-05T00:20:24.173Z,445.00
2023-05-05T00:21:24.193Z,445.00
2023-05-05T00:22:24.172Z,444.00
2023-05-05T00:23:24.179Z,443.00
2023-05-05T00:24:24.160Z,443.00
2023-05-05T00:25:24.189Z,444.00
2023-05-05T00:26:24.227Z,441.00
2023-05-05T00:27:24.271Z,442.00
2023-05-05T00:28:24.321Z,446.00
2023-05-05T00:29:24.371Z,446.00
2023-05-05T00:30:24.405Z,447.00
2023-05-05T00:31:24.491Z,447.00
2023-05-05T00:32:24.503Z,451.00
2023-05-05T00:33:24.544Z,453.00
2023-05-05T00:34:24.590Z,456.00
2023-05-05T00:35:24.639Z,455.00
2023-05-05T00:36:24.693Z,453.00
2023-05-05T00:37:24.741Z,451.00
2023-05-05T00:38:24.776Z,447.00
2023-05-05T00:39:24.833Z,446.00
2023-05-05T00:40:24.883Z,446.00
2023-05-05T00:41:24.925Z,446.00
2023-05-05T00:42:24.991Z,447.00
2023-05-05T00:43:25.028Z,447.00
2023-05-05T00:44:25.072Z,445.00
2023-05-05T00:45:25.133Z,445.00
2023-05-05T00:46:25.211Z,446.00
2023-05-05T00:47:25.261Z,445.00
2023-05-05T00:48:25.316Z,443.00
2023-05-05T00:49:25.358Z,444.00
2023-05-05T00:50:25.391Z,443.00
2023-05-05T00:51:25.458Z,442.00
2023-05-05T00:52:25.519Z,442.00
2023-05-05T00:53:25.561Z,440.00
2023-05-05T00:54:25.621Z,443.00
2023-05-05T00:55:25.672Z,443.00
2023-05-05T00:56:25.722Z,442.00
2023-05-05T00:57:25.786Z,440.00
2023-05-05T00:58:25.820Z,440.00
2023-05-05T00:59:25.887Z,443.00
2023-05-05T01:00:25.948Z,443.00
2023-05-05T01:01:26.016Z,444.00
2023-05-05T01:02:26.182Z,446.00
2023-05-05T01:03:26.190Z,448.00
2023-05-05T01:04:26.166Z,450.00
2023-05-05T01:05:26.209Z,450.00
2023-05-05T01:06:26.274Z,447.00
2023-05-05T01:07:26.269Z,444.00
2023-05-05T01:08:26.273Z,444.00
2023-05-05T01:09:26.270Z,441.00
2023-05-05T01:10:26.560Z,441.00
2023-05-05T01:11:26.281Z,442.00
2023-05-05T01:12:26.274Z,442.00
2023-05-05T01:13:26.260Z,443.00
2023-05-05T01:14:26.253Z,444.00
2023-05-05T01:15:26.247Z,442.00
2023-05-05T01:16:26.261Z,441.00
2023-05-05T01:17:26.266Z,438.00
2023-05-05T01:18:26.249Z,439.00
2023-05-05T01:19:26.244Z,438.00
2023-05-05T01:20:26.233Z,438.00
2023-05-05T01:21:26.286Z,438.00
2023-05-05T01:22:26.356Z,438.00
2023-05-05T01:23:26.403Z,440.00
2023-05-05T01:24:26.463Z,440.00
2023-05-05T01:25:26.508Z,440.00
2023-05-05T01:26:26.505Z,440.00
2023-05-05T01:27:26.507Z,440.00
2023-05-05T01:28:26.510Z,441.00
2023-05-05T01:29:26.503Z,442.00
2023-05-05T01:30:26.504Z,444.00
2023-05-05T01:31:26.514Z,446.00
2023-05-05T01:32:26.506Z,447.00
2023-05-05T01:33:26.500Z,450.00
2023-05-05T01:34:26.496Z,447.00
2023-05-05T01:35:26.491Z,449.00
2023-05-05T01:36:26.505Z,448.00
2023-05-05T01:37:26.571Z,447.00
2023-05-05T01:38:26.654Z,448.00
2023-05-05T01:39:26.698Z,447.00
2023-05-05T01:40:26.750Z,446.00
2023-05-05T01:41:26.829Z,446.00
2023-05-05T01:42:26.893Z,443.00
2023-05-05T01:43:26.957Z,440.00
2023-05-05T01:44:27.015Z,441.00
2023-05-05T01:45:27.070Z,441.00
2023-05-05T01:46:27.120Z,439.00
2023-05-05T01:47:27.216Z,439.00
2023-05-05T01:48:27.262Z,439.00
2023-05-05T01:49:27.365Z,438.00
2023-05-05T01:50:27.421Z,440.00
2023-05-05T01:51:27.457Z,441.00
2023-05-05T01:52:27.509Z,438.00
2023-05-05T01:53:27.566Z,438.00
2023-05-05T01:54:27.767Z,439.00
2023-05-05T01:55:27.730Z,438.00
2023-05-05T01:56:27.751Z,440.00
2023-05-05T01:57:27.823Z,440.00
2023-05-05T01:58:27.877Z,438.00
2023-05-05T01:59:27.929Z,441.00
2023-05-05T02:00:27.999Z,442.00
2023-05-05T02:01:28.111Z,443.00
2023-05-05T02:02:28.198Z,444.00
2023-05-05T02:03:28.221Z,442.00
2023-05-05T02:04:28.236Z,443.00
2023-05-05T02:05:28.305Z,442.00
2023-05-05T02:06:28.381Z,443.00
2023-05-05T02:07:28.452Z,442.00
2023-05-05T02:08:28.508Z,441.00
2023-05-05T02:09:28.578Z,443.00
2023-05-05T02:10:28.647Z,443.00
2023-05-05T02:11:28.696Z,443.00
2023-05-05T02:12:28.762Z,442.00
2023-05-05T02:13:28.843Z,440.00
2023-05-05T02:14:28.908Z,438.00
2023-05-05T02:15:29.017Z,436.00
2023-05-05T02:16:29.046Z,435.00
2023-05-05T02:17:29.082Z,436.00
2023-05-05T02:18:29.045Z,437.00
2023-05-05T02:19:29.026Z,438.00
2023-05-05T02:20:29.032Z,438.00
2023-05-05T02:21:29.021Z,439.00
2023-05-05T02:22:29.015Z,439.00
2023-05-05T02:23:29.023Z,437.00
2023-05-05T02:24:29.015Z,435.00
2023-05-05T02:25:29.013Z,438.00
2023-05-05T02:26:29.020Z,437.00
2023-05-05T02:27:29.103Z,438.00
2023-05-05T02:28:29.127Z,439.00
2023-05-05T02:29:29.179Z,439.00
2023-05-05T02:30:29.243Z,436.00
2023-05-05T02:31:29.338Z,434.00
2023-05-05T02:32:29.436Z,434.00
2023-05-05T02:33:29.416Z,433.00
2023-05-05T02:34:29.413Z,435.00
2023-05-05T02:35:29.419Z,434.00
2023-05-05T02:36:29.423Z,435.00
2023-05-05T02:37:29.425Z,433.00
2023-05-05T02:38:29.416Z,433.00
2023-05-05T02:39:29.417Z,432.00
2023-05-05T02:40:29.418Z,431.00
2023-05-05T02:41:29.404Z,430.00
2023-05-05T02:42:29.425Z,432.00
2023-05-05T02:43:29.459Z,434.00
2023-05-05T02:44:29.506Z,433.00
2023-05-05T02:45:29.549Z,434.00
2023-05-05T02:46:29.613Z,435.00
2023-05-05T02:47:29.625Z,431.00
2023-05-05T02:48:29.645Z,430.00
2023-05-05T02:49:29.613Z,432.00
2023-05-05T02:50:29.614Z,431.00
2023-05-05T02:51:29.647Z,432.00
2023-05-05T02:52:29.685Z,432.00
2023-05-05T02:53:29.679Z,432.00
2023-05-05T02:54:29.687Z,429.00
2023-05-05T02:55:29.734Z,426.00
2023-05-05T02:56:29.728Z,426.00
2023-05-05T02:57:29.739Z,426.00
2023-05-05T02:58:29.797Z,425.00
2023-05-05T02:59:29.777Z,423.00
2023-05-05T03:00:29.801Z,419.00
2023-05-05T03:01:29.860Z,416.00
2023-05-05T03:02:29.844Z,416.00
2023-05-05T03:03:29.932Z,417.00
2023-05-05T03:04:29.801Z,418.00
2023-05-05T03:05:29.815Z,417.00
2023-05-05T03:06:29.821Z,417.00
2023-05-05T03:07:29.824Z,417.00
2023-05-05T03:08:29.840Z,411.00
2023-05-05T03:09:29.854Z,409.00
2023-05-05T03:10:29.861Z,408.00
2023-05-05T03:11:29.856Z,410.00
2023-05-05T03:12:29.891Z,410.00
2023-05-05T03:13:29.867Z,411.00
2023-05-05T03:14:32.776Z,410.00
2023-05-05T03:15:29.871Z,411.00
2023-05-05T03:16:29.891Z,410.00
2023-05-05T03:17:29.915Z,407.00
2023-05-05T03:18:29.895Z,407.00
2023-05-05T03:19:29.906Z,406.00
2023-05-05T03:20:29.918Z,406.00
2023-05-05T03:21:29.908Z,403.00
2023-05-05T03:22:29.913Z,400.00
2023-05-05T03:23:29.939Z,397.00
2023-05-05T03:24:29.935Z,396.00
2023-05-05T03:25:29.940Z,396.00
2023-05-05T03:26:29.944Z,396.00
2023-05-05T03:27:29.949Z,396.00
2023-05-05T03:28:29.970Z,399.00
2023-05-05T03:29:29.975Z,401.00
2023-05-05T03:30:29.964Z,404.00
2023-05-05T03:31:29.997Z,407.00
2023-05-05T03:32:29.996Z,403.00
2023-05-05T03:33:29.996Z,403.00
2023-05-05T03:34:30.011Z,403.00
2023-05-05T03:35:30.027Z,402.00
2023-05-05T03:36:30.028Z,403.00
2023-05-05T03:37:30.060Z,404.00
2023-05-05T03:38:30.061Z,403.00
2023-05-05T03:39:30.067Z,403.00
2023-05-05T03:40:42.922Z,401.00
2023-05-05T03:41:31.097Z,404.00
2023-05-05T03:42:30.104Z,404.00
2023-05-05T03:43:30.104Z,403.00
2023-05-05T03:44:30.111Z,403.00
2023-05-05T03:45:30.165Z,406.00
2023-05-05T03:46:30.159Z,405.00
2023-05-05T03:47:30.165Z,402.00
2023-05-05T03:48:30.162Z,401.00
2023-05-05T03:49:30.164Z,400.00
2023-05-05T03:50:30.185Z,400.00
2023-05-05T03:51:30.194Z,398.00
2023-05-05T03:52:30.196Z,397.00
2023-05-05T03:53:30.224Z,397.00
2023-05-05T03:54:30.218Z,396.00
2023-05-05T03:55:30.234Z,397.00
2023-05-05T03:56:30.309Z,400.00
2023-05-05T03:57:30.393Z,398.00
2023-05-05T03:58:30.471Z,399.00
2023-05-05T03:59:30.540Z,395.00
2023-05-05T04:00:30.613Z,397.00
2023-05-05T04:01:30.687Z,396.00
2023-05-05T04:02:30.839Z,395.00
2023-05-05T04:03:30.994Z,396.00
2023-05-05T04:04:30.913Z,395.00
2023-05-05T04:05:30.966Z,394.00
2023-05-05T04:06:31.054Z,395.00
2023-05-05T04:07:31.105Z,398.00
2023-05-05T04:08:31.188Z,399.00
2023-05-05T04:09:31.259Z,398.00
2023-05-05T04:10:31.346Z,396.00
2023-05-05T04:11:31.404Z,398.00
2023-05-05T04:12:31.483Z,398.00
2023-05-05T04:13:31.566Z,398.00
2023-05-05T04:14:31.629Z,397.00
2023-05-05T04:15:31.633Z,398.00
2023-05-05T04:16:31.668Z,398.00
2023-05-05T04:17:31.680Z,401.00
2023-05-05T04:18:31.667Z,401.00
2023-05-05T04:19:31.668Z,402.00
2023-05-05T04:20:31.705Z,403.00
2023-05-05T04:21:31.706Z,403.00
2023-05-05T04:22:31.708Z,401.00
2023-05-05T04:23:31.715Z,401.00
2023-05-05T04:24:31.713Z,401.00
2023-05-05T04:25:31.746Z,400.00
2023-05-05T04:26:31.806Z,402.00
2023-05-05T04:27:31.864Z,402.00
2023-05-05T04:28:31.917Z,402.00
2023-05-05T04:29:31.970Z,401.00
2023-05-05T04:30:32.014Z,400.00
2023-05-05T04:31:32.096Z,397.00
2023-05-05T04:32:32.067Z,397.00
2023-05-05T04:33:32.030Z,399.00
2023-05-05T04:34:32.036Z,395.00
2023-05-05T04:35:32.049Z,392.00
2023-05-05T04:36:32.052Z,391.00
2023-05-05T04:37:32.078Z,392.00
2023-05-05T04:38:32.125Z,395.00
2023-05-05T04:39:32.089Z,398.00
2023-05-05T04:40:32.097Z,397.00
2023-05-05T04:41:32.111Z,396.00
2023-05-05T04:42:32.125Z,400.00
2023-05-05T04:43:32.125Z,400.00
2023-05-05T04:44:32.132Z,402.00
2023-05-05T04:45:32.132Z,401.00
2023-05-05T04:46:32.173Z,401.00
2023-05-05T04:47:32.222Z,402.00
2023-05-05T04:48:32.171Z,401.00
2023-05-05T04:49:32.162Z,400.00
2023-05-05T04:50:32.182Z,396.00
2023-05-05T04:51:32.201Z,396.00
2023-05-05T04:52:32.218Z,397.00
2023-05-05T04:53:32.218Z,400.00
2023-05-05T04:54:32.246Z,401.00
2023-05-05T04:55:32.234Z,401.00
2023-05-05T04:56:32.250Z,398.00
2023-05-05T04:57:32.258Z,400.00
2023-05-05T04:58:32.262Z,400.00
2023-05-05T04:59:32.280Z,397.00
2023-05-05T05:00:32.281Z,396.00
2023-05-05T05:01:32.317Z,396.00
2023-05-05T05:02:32.378Z,396.00
2023-05-05T05:03:32.439Z,393.00
2023-05-05T05:04:32.330Z,395.00
2023-05-05T05:05:32.329Z,396.00
2023-05-05T05:06:32.333Z,400.00
2023-05-05T05:07:32.368Z,402.00
2023-05-05T05:08:32.346Z,401.00
2023-05-05T05:09:32.344Z,405.00
2023-05-05T05:10:32.382Z,406.00
2023-05-05T05:11:32.439Z,407.00
2023-05-05T05:12:32.519Z,407.00
2023-05-05T05:13:32.544Z,406.00
2023-05-05T05:14:32.580Z,405.00
2023-05-05T05:15:32.622Z,405.00
2023-05-05T05:16:32.687Z,406.00
2023-05-05T05:17:32.678Z,408.00
2023-05-05T05:18:32.705Z,408.00
2023-05-05T05:19:32.695Z,410.00
2023-05-05T05:20:32.708Z,411.00
2023-05-05T05:21:32.710Z,413.00
2023-05-05T05:22:32.714Z,415.00
2023-05-05T05:23:32.731Z,418.00
2023-05-05T05:24:32.724Z,420.00
2023-05-05T05:25:32.727Z,419.00
2023-05-05T05:26:32.741Z,421.00
2023-05-05T05:27:32.761Z,419.00
2023-05-05T05:28:32.766Z,420.00
2023-05-05T05:29:32.761Z,419.00
2023-05-05T05:30:32.749Z,420.00
2023-05-05T05:31:32.801Z,423.00
2023-05-05T05:32:32.816Z,428.00
2023-05-05T05:33:32.749Z,560.00
2023-05-05T05:34:32.759Z,554.00
2023-05-05T05:35:32.753Z,492.00
2023-05-05T05:36:32.767Z,508.00
2023-05-05T05:37:32.782Z,496.00
2023-05-05T05:38:32.762Z,490.00
2023-05-05T05:39:32.762Z,525.00
2023-05-05T05:40:32.907Z,537.00
2023-05-05T05:41:32.799Z,544.00
2023-05-05T05:42:32.796Z,542.00
2023-05-05T05:43:32.772Z,541.00
2023-05-05T05:44:32.797Z,551.00
2023-05-05T05:45:32.771Z,603.00
2023-05-05T05:46:32.812Z,619.00
2023-05-05T05:47:32.822Z,621.00
2023-05-05T05:48:32.812Z,606.00
2023-05-05T05:49:32.834Z,603.00
2023-05-05T05:50:32.817Z,613.00
2023-05-05T05:51:32.825Z,620.00
2023-05-05T05:52:32.835Z,645.00
2023-05-05T05:53:32.849Z,645.00
2023-05-05T05:54:32.892Z,689.00
2023-05-05T05:55:32.882Z,752.00
2023-05-05T05:56:33.005Z,758.00
2023-05-05T05:57:32.886Z,726.00
2023-05-05T05:58:32.852Z,737.00
2023-05-05T05:59:32.881Z,745.00
2023-05-05T06:00:32.869Z,744.00
2023-05-05T06:01:32.859Z,753.00
2023-05-05T06:02:32.957Z,763.00
2023-05-05T06:03:32.913Z,774.00
2023-05-05T06:04:32.923Z,806.00
2023-05-05T06:05:32.873Z,794.00
2023-05-05T06:06:32.889Z,801.00
2023-05-05T06:07:32.849Z,812.00
2023-05-05T06:08:32.843Z,843.00
2023-05-05T06:09:32.834Z,856.00
2023-05-05T06:10:33.227Z,867.00
2023-05-05T06:11:32.832Z,883.00
2023-05-05T06:12:32.888Z,878.00
2023-05-05T06:13:32.885Z,820.00
2023-05-05T06:14:32.837Z,855.00
2023-05-05T06:15:32.836Z,906.00
2023-05-05T06:16:32.986Z,912.00
2023-05-05T06:17:32.818Z,919.00
2023-05-05T06:18:32.822Z,918.00
2023-05-05T06:19:32.793Z,627.00
2023-05-05T06:20:32.801Z,720.00
2023-05-05T06:21:32.819Z,661.00
2023-05-05T06:22:32.831Z,568.00
2023-05-05T06:23:32.820Z,641.00
2023-05-05T06:24:32.805Z,641.00
2023-05-05T06:25:32.794Z,578.00
2023-05-05T06:26:32.799Z,588.00
2023-05-05T06:27:32.809Z,559.00
2023-05-05T06:28:32.807Z,571.00
2023-05-05T06:29:32.799Z,557.00
2023-05-05T06:30:32.852Z,578.00
2023-05-05T06:31:32.852Z,512.00
2023-05-05T06:32:32.845Z,500.00
2023-05-05T06:33:32.845Z,544.00
2023-05-05T06:34:32.810Z,497.00
2023-05-05T06:35:32.806Z,483.00
2023-05-05T06:36:32.889Z,478.00
2023-05-05T06:37:32.814Z,521.00
2023-05-05T06:38:32.845Z,511.00
2023-05-05T06:39:32.841Z,506.00
2023-05-05T06:40:32.869Z,498.00
2023-05-05T06:41:32.846Z,565.00
2023-05-05T06:42:32.853Z,494.00
2023-05-05T06:43:32.873Z,460.00
2023-05-05T06:44:32.848Z,504.00
2023-05-05T06:45:32.859Z,485.00
2023-05-05T06:46:32.863Z,473.00
2023-05-05T06:47:32.907Z,481.00
2023-05-05T06:48:32.901Z,479.00
2023-05-05T06:49:32.870Z,536.00
2023-05-05T06:50:32.881Z,487.00
2023-05-05T06:51:32.902Z,491.00
2023-05-05T06:52:32.868Z,501.00
2023-05-05T06:53:32.910Z,501.00
2023-05-05T06:54:32.890Z,491.00
2023-05-05T06:55:33.043Z,478.00
2023-05-05T06:56:32.909Z,474.00
2023-05-05T06:57:32.916Z,464.00
2023-05-05T06:58:32.934Z,455.00
2023-05-05T06:59:32.935Z,447.00
2023-05-05T07:00:33.001Z,452.00
2023-05-05T07:01:32.954Z,455.00
2023-05-05T07:02:32.977Z,469.00
2023-05-05T07:03:33.010Z,445.00
2023-05-05T07:04:32.979Z,439.00
2023-05-05T07:05:32.992Z,439.00
2023-05-05T07:06:33.015Z,433.00
2023-05-05T07:07:33.012Z,434.00
2023-05-05T07:08:33.015Z,428.00
2023-05-05T07:09:33.025Z,437.00
2023-05-05T07:10:33.041Z,445.00
2023-05-05T07:11:33.180Z,443.00
2023-05-05T07:12:33.095Z,450.00
2023-05-05T07:13:33.078Z,447.00
2023-05-05T07:14:33.079Z,449.00
2023-05-05T07:15:33.100Z,448.00
2023-05-05T07:16:33.222Z,442.00
2023-05-05T07:17:33.130Z,444.00
2023-05-05T07:18:33.223Z,449.00
2023-05-05T07:19:33.131Z,450.00
2023-05-05T07:20:33.148Z,451.00
2023-05-05T07:21:33.132Z,461.00
2023-05-05T07:22:33.138Z,480.00
2023-05-05T07:23:33.177Z,444.00
2023-05-05T07:24:33.175Z,453.00
2023-05-05T07:25:33.155Z,452.00
2023-05-05T07:26:33.184Z,449.00
2023-05-05T07:27:33.268Z,447.00
2023-05-05T07:28:33.192Z,449.00
2023-05-05T07:29:33.198Z,446.00
2023-05-05T07:30:33.209Z,448.00
2023-05-05T07:31:33.228Z,453.00
2023-05-05T07:32:33.215Z,466.00
2023-05-05T07:33:33.202Z,460.00
2023-05-05T07:34:33.220Z,460.00
2023-05-05T07:35:33.220Z,460.00
2023-05-05T07:36:33.226Z,467.00
2023-05-05T07:37:33.222Z,464.00
2023-05-05T07:38:33.230Z,455.00
2023-05-05T07:39:33.244Z,456.00
2023-05-05T07:40:33.245Z,460.00
2023-05-05T07:41:33.243Z,466.00
2023-05-05T07:42:33.273Z,477.00
2023-05-05T07:43:33.317Z,475.00
2023-05-05T07:44:33.304Z,474.00
2023-05-05T07:45:33.369Z,466.00
2023-05-05T07:46:33.528Z,469.00
2023-05-05T07:47:33.612Z,465.00
2023-05-05T07:48:40.479Z,466.00
2023-05-05T07:49:33.592Z,467.00
2023-05-05T07:50:33.604Z,481.00
2023-05-05T07:51:34.589Z,455.00
2023-05-05T07:52:44.969Z,457.00
2023-05-05T07:53:34.562Z,454.00
2023-05-05T07:54:33.687Z,454.00
2023-05-05T07:55:33.558Z,457.00
2023-05-05T07:56:33.567Z,470.00
2023-05-05T07:57:33.639Z,501.00
2023-05-05T07:58:33.579Z,490.00
2023-05-05T07:59:33.692Z,452.00
2023-05-05T08:00:33.580Z,453.00
2023-05-05T08:01:33.605Z,430.00
2023-05-05T08:02:33.679Z,431.00
2023-05-05T08:03:33.876Z,435.00
2023-05-05T08:04:33.675Z,437.00
2023-05-05T08:05:33.622Z,439.00
2023-05-05T08:06:33.576Z,446.00
2023-05-05T08:07:33.603Z,450.00
2023-05-05T08:08:33.601Z,438.00
2023-05-05T08:09:33.592Z,436.00
2023-05-05T08:10:33.654Z,444.00
2023-05-05T08:11:33.620Z,456.00
2023-05-05T08:12:33.747Z,457.00
2023-05-05T08:13:33.680Z,458.00
2023-05-05T08:14:33.608Z,452.00
2023-05-05T08:15:33.672Z,443.00
2023-05-05T08:16:33.790Z,438.00
2023-05-05T08:17:33.752Z,429.00
2023-05-05T08:18:33.624Z,451.00
2023-05-05T08:19:33.599Z,443.00
2023-05-05T08:20:33.655Z,449.00
2023-05-05T08:21:33.601Z,426.00
2023-05-05T08:22:33.688Z,423.00
2023-05-05T08:23:33.632Z,421.00
2023-05-05T08:24:33.649Z,428.00
2023-05-05T08:25:33.637Z,428.00
2023-05-05T08:26:33.643Z,427.00
2023-05-05T08:27:33.650Z,427.00
2023-05-05T08:28:33.658Z,435.00
2023-05-05T08:29:33.667Z,438.00
2023-05-05T08:30:33.689Z,448.00
2023-05-05T08:31:33.779Z,452.00
2023-05-05T08:32:33.761Z,452.00
2023-05-05T08:33:33.683Z,461.00
2023-05-05T08:34:33.690Z,486.00
2023-05-05T08:35:33.713Z,492.00
2023-05-05T08:36:33.756Z,449.00
2023-05-05T08:37:33.772Z,425.00
2023-05-05T08:38:33.805Z,423.00
2023-05-05T08:39:33.873Z,427.00
2023-05-05T08:40:33.959Z,430.00
2023-05-05T08:41:34.034Z,425.00
2023-05-05T08:42:38.600Z,420.00
2023-05-05T08:43:34.026Z,428.00
2023-05-05T08:44:34.060Z,431.00
2023-05-05T08:45:34.015Z,443.00
2023-05-05T08:46:34.105Z,441.00
2023-05-05T08:47:34.167Z,413.00
2023-05-05T08:48:33.992Z,418.00
2023-05-05T08:49:34.034Z,413.00
2023-05-05T08:50:33.983Z,414.00
2023-05-05T08:51:34.039Z,403.00
2023-05-05T08:52:34.054Z,401.00
2023-05-05T08:53:33.963Z,394.00
2023-05-05T08:54:33.996Z,391.00
2023-05-05T08:55:33.984Z,391.00
2023-05-05T08:56:34.005Z,393.00
2023-05-05T08:57:33.994Z,397.00
2023-05-05T08:58:33.961Z,381.00
2023-05-05T08:59:33.990Z,388.00
2023-05-05T09:00:34.011Z,389.00
2023-05-05T09:01:34.127Z,387.00
2023-05-05T09:02:34.102Z,387.00
2023-05-05T09:03:34.101Z,386.00
2023-05-05T09:04:34.007Z,386.00
2023-05-05T09:05:33.896Z,385.00
2023-05-05T09:06:33.971Z,383.00
2023-05-05T09:07:33.886Z,372.00
2023-05-05T09:08:33.905Z,377.00
2023-05-05T09:09:34.133Z,374.00
2023-05-05T09:10:34.120Z,375.00
2023-05-05T09:11:34.264Z,374.00
2023-05-05T09:12:34.180Z,372.00
2023-05-05T09:13:34.207Z,373.00
2023-05-05T09:14:34.266Z,373.00
2023-05-05T09:15:34.300Z,373.00
2023-05-05T09:16:34.360Z,375.00
2023-05-05T09:17:34.395Z,375.00
2023-05-05T09:18:34.411Z,375.00
2023-05-05T09:19:34.607Z,374.00
2023-05-05T09:20:34.532Z,374.00
2023-05-05T09:21:34.590Z,376.00
2023-05-05T09:22:34.662Z,374.00
2023-05-05T09:23:34.726Z,378.00
2023-05-05T09:24:34.806Z,381.00
2023-05-05T09:25:34.888Z,382.00
2023-05-05T09:26:34.938Z,395.00
2023-05-05T09:27:35.011Z,389.00
2023-05-05T09:28:35.077Z,399.00
2023-05-05T09:29:35.127Z,392.00
2023-05-05T09:30:35.111Z,390.00
2023-05-05T09:31:35.113Z,392.00
2023-05-05T09:32:35.120Z,387.00
2023-05-05T09:33:35.120Z,385.00
2023-05-05T09:34:35.168Z,383.00
2023-05-05T09:35:35.182Z,380.00
2023-05-05T09:36:35.130Z,379.00
2023-05-05T09:37:35.149Z,381.00
2023-05-05T09:38:35.147Z,379.00
2023-05-05T09:39:35.128Z,381.00
2023-05-05T09:40:35.130Z,381.00
2023-05-05T09:41:35.133Z,383.00
2023-05-05T09:42:35.141Z,391.00
2023-05-05T09:43:35.190Z,430.00
2023-05-05T09:44:35.132Z,438.00
2023-05-05T09:45:35.149Z,433.00
2023-05-05T09:46:35.134Z,490.00
2023-05-05T09:47:35.302Z,494.00
2023-05-05T09:49:35.127Z,518.00
2023-05-05T09:50:35.121Z,516.00
2023-05-05T09:51:35.220Z,517.00
2023-05-05T09:52:35.118Z,529.00
2023-05-05T09:53:35.125Z,557.00
2023-05-05T09:54:35.151Z,552.00
2023-05-05T09:55:35.158Z,554.00
2023-05-05T09:56:35.161Z,577.00
2023-05-05T09:57:35.158Z,578.00
2023-05-05T09:58:35.192Z,636.00
2023-05-05T09:59:35.195Z,661.00
2023-05-05T10:00:35.210Z,701.00
2023-05-05T10:01:35.359Z,728.00
2023-05-05T10:02:35.388Z,738.00
2023-05-05T10:03:35.338Z,741.00
2023-05-05T10:04:35.360Z,746.00
2023-05-05T10:05:35.331Z,770.00
2023-05-05T10:06:35.377Z,825.00
2023-05-05T10:07:35.322Z,822.00
2023-05-05T10:08:35.315Z,823.00
2023-05-05T10:09:35.338Z,834.00
2023-05-05T10:10:35.314Z,848.00
2023-05-05T10:11:35.318Z,854.00
2023-05-05T10:12:35.308Z,859.00
2023-05-05T10:13:35.289Z,866.00
2023-05-05T10:14:35.254Z,871.00
2023-05-05T10:15:35.281Z,874.00
2023-05-05T10:16:35.286Z,874.00
2023-05-05T10:17:35.240Z,882.00
2023-05-05T10:18:35.263Z,888.00
2023-05-05T10:19:35.201Z,895.00
2023-05-05T10:20:35.164Z,900.00
2023-05-05T10:21:35.161Z,903.00
2023-05-05T10:22:35.161Z,907.00
2023-05-05T10:23:35.197Z,905.00
2023-05-05T10:24:35.134Z,897.00
2023-05-05T10:25:35.139Z,886.00
2023-05-05T10:26:35.124Z,879.00
2023-05-05T10:27:35.104Z,881.00
2023-05-05T10:28:35.118Z,876.00
2023-05-05T10:29:35.106Z,897.00
2023-05-05T10:30:35.099Z,665.00
2023-05-05T10:31:35.112Z,655.00
2023-05-05T10:33:36.117Z,677.00
2023-05-05T10:34:35.135Z,759.00
2023-05-05T10:35:35.054Z,750.00
2023-05-05T10:36:35.062Z,584.00
2023-05-05T10:37:35.026Z,677.00
2023-05-05T10:38:35.049Z,715.00
2023-05-05T10:39:35.099Z,767.00
2023-05-05T10:40:35.101Z,751.00
2023-05-05T10:41:35.099Z,753.00
2023-05-05T10:42:35.135Z,776.00
2023-05-05T10:43:35.133Z,806.00
2023-05-05T10:44:35.137Z,818.00
2023-05-05T10:45:35.340Z,832.00
2023-05-05T10:46:35.386Z,827.00
2023-05-05T10:47:35.220Z,819.00
2023-05-05T10:48:35.254Z,638.00
2023-05-05T10:49:35.250Z,679.00
2023-05-05T10:50:35.232Z,570.00
2023-05-05T10:51:40.093Z,652.00
2023-05-05T10:52:36.255Z,752.00
2023-05-05T10:53:35.366Z,738.00
2023-05-05T10:54:37.156Z,621.00
2023-05-05T10:55:35.391Z,605.00
2023-05-05T10:56:35.250Z,615.00
2023-05-05T10:57:35.257Z,648.00
2023-05-05T10:58:47.122Z,660.00
2023-05-05T10:59:36.196Z,646.00
2023-05-05T11:00:35.163Z,661.00
2023-05-05T11:01:35.328Z,650.00
2023-05-05T11:02:35.210Z,609.00
2023-05-05T11:03:35.138Z,596.00
2023-05-05T11:04:35.086Z,587.00
2023-05-05T11:05:35.073Z,649.00
2023-05-05T11:06:35.055Z,697.00
2023-05-05T11:07:35.051Z,718.00
2023-05-05T11:08:35.025Z,655.00
2023-05-05T11:09:35.017Z,650.00
2023-05-05T11:10:35.006Z,646.00
2023-05-05T11:11:35.099Z,644.00
2023-05-05T11:12:36.114Z,637.00
2023-05-05T11:13:34.956Z,577.00
2023-05-05T11:14:34.932Z,544.00
2023-05-05T11:15:34.932Z,538.00
2023-05-05T11:16:34.977Z,533.00
2023-05-05T11:17:34.909Z,526.00
2023-05-05T11:18:34.865Z,516.00
2023-05-05T11:19:34.872Z,502.00
2023-05-05T11:20:34.834Z,492.00
2023-05-05T11:21:34.819Z,482.00
2023-05-05T11:22:34.797Z,472.00
2023-05-05T11:23:34.776Z,466.00
2023-05-05T11:24:34.763Z,458.00
2023-05-05T11:25:34.803Z,450.00
2023-05-05T11:26:34.703Z,448.00
2023-05-05T11:27:34.762Z,450.00
2023-05-05T11:28:34.676Z,449.00
2023-05-05T11:29:34.677Z,450.00
2023-05-05T11:30:34.646Z,452.00
2023-05-05T11:31:34.758Z,452.00
2023-05-05T11:32:34.681Z,450.00
2023-05-05T11:33:34.609Z,447.00
2023-05-05T11:34:34.598Z,447.00
2023-05-05T11:35:34.577Z,445.00
2023-05-05T11:36:34.558Z,446.00
2023-05-05T11:37:34.559Z,444.00
2023-05-05T11:38:34.547Z,447.00
2023-05-05T11:39:34.516Z,450.00
2023-05-05T11:40:34.492Z,450.00
2023-05-05T11:41:34.462Z,451.00
2023-05-05T11:42:34.464Z,449.00
2023-05-05T11:43:34.513Z,449.00
2023-05-05T11:44:34.421Z,446.00
2023-05-05T11:45:34.423Z,444.00
2023-05-05T11:46:34.403Z,445.00
2023-05-05T11:47:34.427Z,448.00
2023-05-05T11:48:34.434Z,446.00
2023-05-05T11:49:34.469Z,441.00
2023-05-05T11:50:34.539Z,432.00
2023-05-05T11:51:34.537Z,426.00
2023-05-05T11:52:34.597Z,422.00
2023-05-05T11:53:34.579Z,422.00
2023-05-05T11:54:34.540Z,422.00
2023-05-05T11:55:34.553Z,423.00
2023-05-05T11:56:34.505Z,424.00
2023-05-05T11:57:34.486Z,422.00
2023-05-05T11:58:34.479Z,422.00
2023-05-05T11:59:34.521Z,424.00
2023-05-05T12:00:34.467Z,426.00
2023-05-05T12:01:34.465Z,427.00
2023-05-05T12:02:34.505Z,427.00
2023-05-05T12:03:34.533Z,427.00
2023-05-05T12:04:34.478Z,423.00
2023-05-05T12:05:36.729Z,423.00
2023-05-05T12:06:34.406Z,422.00
2023-05-05T12:07:34.414Z,421.00
2023-05-05T12:08:34.375Z,420.00
2023-05-05T12:09:34.370Z,421.00
2023-05-05T12:10:34.347Z,421.00
2023-05-05T12:11:34.325Z,422.00
2023-05-05T12:12:34.341Z,425.00
2023-05-05T12:13:34.278Z,430.00
2023-05-05T12:14:34.322Z,430.00
2023-05-05T12:15:34.324Z,430.00
2023-05-05T12:16:34.252Z,428.00
2023-05-05T12:17:34.234Z,429.00
2023-05-05T12:18:34.208Z,430.00
2023-05-05T12:19:34.189Z,426.00
2023-05-05T12:20:34.184Z,426.00
2023-05-05T12:21:34.153Z,424.00
2023-05-05T12:22:34.125Z,423.00
2023-05-05T12:23:34.117Z,423.00
2023-05-05T12:24:34.086Z,423.00
2023-05-05T12:25:34.085Z,418.00
2023-05-05T12:26:34.050Z,414.00
2023-05-05T12:27:34.056Z,414.00
2023-05-05T12:28:34.021Z,414.00
2023-05-05T12:29:34.003Z,416.00
2023-05-05T12:30:34.044Z,415.00